Main page
METAR-TAF:

METAR-TAF

Airports :

Colby Municipal Airport

Colby, Kansas, United States

latitude: 39-25-39N, longitude: 101-02-48W, elevation: 3185 ft

Current weather observation

The report was made 18 minutes ago, at 04:35 UTC
Wind 6 mph from the South/Southwest
Temperature 59°F
Humidity 59%
Pressure 30.00 in. Hg
Visibility: 10 miles
Clear sky

METAR: KCBK 240435Z AUTO 21005KT 10SM CLR 15/07 A3000 RMK AO2 PWINO

Time: 23:53 (04:53 UTC)


TAF: missing

Weather observations and forecasts of more than 4000 airports (METAR and TAF reports).

The available stations are represented by yellow and red dots on the map.

Hover mouse over dot to see the name of the station.

Then click to see weather observations and forecasts.

To change the map : click on the green buttons with a black cross to zoom in, on the green button with a dash to zoom out, or on the green arrows for adjacent maps.


METAR-TAF: